Dresden, Kansas
Current Conditions -  °F | °C
As of 1:53 AM on Thursday 23 Oct 2014 (Local Time) from KHLC Reporting Station
Few Clouds Few Clouds  
Wind Chill: 50°   Ceiling: Unl
Heat Index: 50°   Visibility: 10mi
Dew Point: 49°   Wind: 3mph
Humidity: 96%   Direction: 270°W
Pressure: 30.06"   Gusts: NA
Location:  39.62°N, 100.42°W
Report Text: KHLC 230653Z AUTO 27003KT 10SM FEW008 10/09 A3006 RMK AO2 SLP168 T01000094
Loading
Personal Weather Stations






























Interactive Weather Map
Tropical Storm Tracking
New forecast layout! Learn more

10-Day Weather Forecast

Advertisements
Track Severe Weather on mobile